Time;durP1;ratioP1;P1;durP2;ratioP2;P2;SDS_P1;SDS_P2;PMS_P1;PMS_P2;Temp;Humidity;BMP_temperature;BMP_pressure;BME280_temperature;BME280_humidity;BME280_pressure;Samples;Min_cycle;Max_cycle;Signal;HPM_P1;HPM_P2
2023/03/05 00:01:34;;;;;;;6.00;2.80;;;;;;;16.06;35.78;99989.66;5071977;28;20056;-65
2023/03/05 00:04:05;;;;;;;4.90;2.70;;;;;;;16.05;35.80;99984.41;5071713;28;20044;-66
2023/03/05 00:06:33;;;;;;;4.55;2.72;;;;;;;15.99;35.85;99980.41;5071636;28;20397;-66
2023/03/05 00:09:02;;;;;;;4.18;2.75;;;;;;;15.96;35.74;99983.38;5071743;28;20493;-67
2023/03/05 00:11:32;;;;;;;4.60;2.75;;;;;;;15.94;35.78;99985.34;5071756;28;20075;-67
2023/03/05 00:14:03;;;;;;;4.05;2.50;;;;;;;15.91;35.75;99981.06;5071850;28;20052;-67
2023/03/05 00:16:32;;;;;;;4.15;2.58;;;;;;;15.86;35.99;99975.25;5071694;28;20044;-66
2023/03/05 00:19:01;;;;;;;4.53;2.80;;;;;;;15.85;35.83;99980.75;5071739;28;20040;-65
2023/03/05 00:21:31;;;;;;;4.47;2.53;;;;;;;15.81;35.88;99985.53;5071707;28;20106;-66
2023/03/05 00:24:00;;;;;;;4.05;2.70;;;;;;;15.81;35.92;99982.84;5071990;28;20080;-66
2023/03/05 00:26:30;;;;;;;4.30;2.67;;;;;;;15.76;36.00;99990.47;5071838;28;20083;-65
2023/03/05 00:28:58;;;;;;;4.63;2.90;;;;;;;15.73;36.04;99978.16;5073878;28;20052;-66
2023/03/05 00:31:30;;;;;;;4.07;2.58;;;;;;;15.68;36.08;99977.69;5074489;28;20396;-66
2023/03/05 00:34:00;;;;;;;5.18;2.80;;;;;;;15.66;36.02;99978.81;5072831;28;20503;-67
2023/03/05 00:36:29;;;;;;;4.68;2.92;;;;;;;15.66;35.98;99976.13;5071866;28;20051;-66
2023/03/05 00:38:58;;;;;;;4.03;2.67;;;;;;;15.60;35.93;99973.91;5071618;28;20404;-65
2023/03/05 00:41:26;;;;;;;4.43;2.78;;;;;;;15.59;36.11;99967.69;5075908;28;20402;-67
2023/03/05 00:43:55;;;;;;;5.47;3.35;;;;;;;15.55;36.10;99970.78;5075270;28;20049;-66
2023/03/05 00:46:26;;;;;;;5.15;3.22;;;;;;;15.53;36.07;99975.41;5075187;28;20470;-67
2023/03/05 00:48:57;;;;;;;4.75;3.08;;;;;;;15.50;36.01;99975.66;5075048;28;20056;-66
2023/03/05 00:51:25;;;;;;;4.40;2.80;;;;;;;15.48;36.20;99969.59;5075027;28;20097;-66
2023/03/05 00:53:54;;;;;;;5.53;3.25;;;;;;;15.44;36.08;99967.16;5074994;28;20052;-67
2023/03/05 00:56:22;;;;;;;4.60;2.78;;;;;;;15.42;36.02;99961.03;5075062;28;20684;-66
2023/03/05 00:58:52;;;;;;;4.25;2.90;;;;;;;15.39;36.09;99966.69;5074962;28;20094;-66
2023/03/05 01:01:20;;;;;;;4.93;2.70;;;;;;;15.34;36.05;99949.22;5074818;28;20072;-66
2023/03/05 01:03:49;;;;;;;4.57;3.10;;;;;;;15.36;36.05;99958.03;5074781;28;20493;-66
2023/03/05 01:06:19;;;;;;;5.22;3.30;;;;;;;15.32;36.10;99959.28;5074784;28;20055;-67
2023/03/05 01:08:47;;;;;;;4.82;2.70;;;;;;;15.28;36.03;99961.38;5074892;28;20044;-67
2023/03/05 01:11:16;;;;;;;4.57;2.80;;;;;;;15.28;36.08;99958.69;5074707;28;20079;-65
2023/03/05 01:13:44;;;;;;;4.05;3.00;;;;;;;15.24;36.17;99959.91;5074589;28;20405;-65
2023/03/05 01:16:12;;;;;;;5.90;3.05;;;;;;;15.24;36.20;99954.53;5074498;28;20052;-65
2023/03/05 01:18:41;;;;;;;5.32;2.80;;;;;;;15.22;36.14;99966.41;5074633;28;20068;-67
2023/03/05 01:21:10;;;;;;;4.07;2.65;;;;;;;15.17;36.19;99948.00;5074520;28;20051;-66
2023/03/05 01:23:39;;;;;;;5.28;2.90;;;;;;;15.17;36.16;99959.59;5074437;28;20428;-67
2023/03/05 01:26:08;;;;;;;4.28;2.80;;;;;;;15.14;36.23;99967.03;5074370;28;20054;-66
2023/03/05 01:28:37;;;;;;;4.40;2.60;;;;;;;15.12;36.36;99960.94;5074233;28;20048;-66
2023/03/05 01:31:09;;;;;;;4.50;3.15;;;;;;;15.11;36.30;99964.63;5074296;28;20075;-66
2023/03/05 01:33:37;;;;;;;4.85;2.65;;;;;;;15.08;36.38;99967.56;5074382;28;20040;-66
2023/03/05 01:36:13;;;;;;;3.78;2.60;;;;;;;15.06;36.37;99961.47;5074265;28;20049;-65
2023/03/05 01:38:44;;;;;;;4.22;2.85;;;;;;;15.05;36.36;99965.13;5074031;28;20136;-65
2023/03/05 01:41:13;;;;;;;5.25;3.10;;;;;;;15.00;36.49;99967.34;5074008;28;20055;-66
2023/03/05 01:43:43;;;;;;;3.92;2.97;;;;;;;15.00;36.31;99973.56;5074325;28;20468;-66
2023/03/05 01:46:30;;;;;;;4.97;3.17;;;;;;;14.99;36.37;99971.00;5073886;28;20045;-65
2023/03/05 01:49:24;;;;;;;5.05;2.70;;;;;;;14.97;36.38;99978.34;5073898;28;20052;-66
2023/03/05 01:52:01;;;;;;;4.55;2.95;;;;;;;14.95;36.43;99961.50;5072995;28;20136;-66
2023/03/05 01:54:34;;;;;;;6.13;3.00;;;;;;;14.92;36.29;99973.34;5073872;28;20041;-66
2023/03/05 01:57:04;;;;;;;;;;;;;;;14.89;36.52;99960.19;5074399;28;20052;-66
2023/03/05 01:59:33;;;;;;;3.97;2.42;;;;;;;14.86;36.39;99960.41;5073815;28;19966;-66
2023/03/05 02:02:02;;;;;;;5.13;3.00;;;;;;;14.87;36.45;99965.69;5073671;28;20049;-66
2023/03/05 02:04:36;;;;;;;5.03;2.92;;;;;;;14.85;36.48;99964.94;5074064;28;20062;-65
2023/03/05 02:07:05;;;;;;;4.88;2.80;;;;;;;14.83;36.41;99963.34;5073666;28;20045;-67
2023/03/05 02:09:38;;;;;;;4.53;2.92;;;;;;;14.81;36.38;99963.50;5073723;28;20045;-65
2023/03/05 02:12:07;;;;;;;4.85;2.92;;;;;;;14.79;36.43;99960.09;5073565;28;20051;-65
2023/03/05 02:14:36;;;;;;;4.50;2.80;;;;;;;14.76;36.36;99963.00;5073427;28;20044;-67
2023/03/05 02:17:05;;;;;;;4.95;2.75;;;;;;;14.74;36.48;99956.06;5073537;28;20043;-67
2023/03/05 02:19:47;;;;;;;4.53;2.97;;;;;;;14.74;36.51;99966.81;5073530;28;20473;-66
2023/03/05 02:22:17;;;;;;;4.70;2.63;;;;;;;14.72;36.35;99958.88;5073374;28;20052;-66
2023/03/05 02:24:45;;;;;;;4.88;3.08;;;;;;;14.69;36.45;99967.19;5073164;28;20056;-67
2023/03/05 02:27:17;;;;;;;4.50;2.80;;;;;;;14.67;36.53;99965.59;5073062;28;20091;-66
2023/03/05 02:29:46;;;;;;;5.15;3.00;;;;;;;14.65;36.38;99963.03;5073376;28;20048;-67
2023/03/05 02:32:17;;;;;;;5.45;3.10;;;;;;;14.62;36.38;99957.94;5073115;28;20485;-66
2023/03/05 02:34:45;;;;;;;6.38;3.10;;;;;;;14.62;36.38;99960.59;5072981;28;20044;-66
2023/03/05 02:37:13;;;;;;;4.65;2.85;;;;;;;14.61;36.49;99961.59;5073046;28;20044;-66
2023/03/05 02:39:42;;;;;;;4.45;2.72;;;;;;;14.59;36.42;99968.91;5072809;28;20052;-67
2023/03/05 02:42:10;;;;;;;5.35;2.92;;;;;;;14.56;36.58;99950.34;5072985;28;20478;-67
2023/03/05 02:44:38;;;;;;;4.45;2.72;;;;;;;14.56;36.35;99958.41;5072755;28;20119;-65
2023/03/05 02:47:07;;;;;;;4.88;3.10;;;;;;;14.54;36.39;99960.38;5072805;28;20049;-66
2023/03/05 02:49:35;;;;;;;4.35;2.97;;;;;;;14.52;36.51;99965.03;5072882;28;20053;-65
2023/03/05 02:52:03;;;;;;;5.30;2.90;;;;;;;14.48;36.47;99955.53;5072748;28;20083;-67
2023/03/05 02:54:31;;;;;;;4.93;3.08;;;;;;;14.48;36.33;99961.75;5072627;28;20044;-66
2023/03/05 02:57:01;;;;;;;4.65;2.75;;;;;;;14.48;36.41;99966.25;5072739;28;20072;-66
2023/03/05 02:59:29;;;;;;;5.35;3.08;;;;;;;14.44;36.49;99948.66;5072568;28;20101;-66
2023/03/05 03:01:57;;;;;;;5.32;3.20;;;;;;;14.44;36.40;99954.00;5072603;28;20087;-67
2023/03/05 03:04:26;;;;;;;4.85;3.10;;;;;;;14.42;36.58;99950.59;5072389;28;20044;-67
2023/03/05 03:06:54;;;;;;;5.72;3.13;;;;;;;14.41;36.53;99954.28;5072318;28;20052;-66
2023/03/05 03:09:22;;;;;;;4.82;2.97;;;;;;;14.39;36.51;99949.03;5072406;28;20052;-66
2023/03/05 03:11:50;;;;;;;4.57;2.70;;;;;;;14.37;36.47;99948.28;5072443;28;20452;-66
2023/03/05 03:14:19;;;;;;;4.55;2.55;;;;;;;14.35;36.61;99960.97;5072404;28;20625;-66
2023/03/05 03:16:48;;;;;;;4.63;2.95;;;;;;;14.33;36.55;99958.41;5072203;28;20045;-65
2023/03/05 03:19:16;;;;;;;4.80;2.78;;;;;;;14.30;36.40;99955.13;5072261;28;20044;-66
2023/03/05 03:21:44;;;;;;;3.78;2.60;;;;;;;14.29;36.52;99958.81;5072163;28;20046;-66
2023/03/05 03:24:12;;;;;;;5.53;3.15;;;;;;;14.28;36.37;99954.38;5072149;28;20044;-65
2023/03/05 03:26:40;;;;;;;5.05;3.00;;;;;;;14.27;36.51;99958.03;5071994;28;20045;-66
2023/03/05 03:29:08;;;;;;;5.07;3.05;;;;;;;14.25;36.43;99951.97;5072106;28;20128;-65
2023/03/05 03:31:40;;;;;;;4.70;3.00;;;;;;;14.22;36.54;99945.00;5072106;28;20055;-65
2023/03/05 03:34:08;;;;;;;4.38;2.40;;;;;;;14.22;36.52;99949.53;5071795;28;20128;-67
2023/03/05 03:36:36;;;;;;;4.60;2.75;;;;;;;14.20;36.47;99944.28;5072081;28;20497;-67
2023/03/05 03:39:05;;;;;;;5.22;2.92;;;;;;;14.18;36.47;99948.91;5071802;28;20084;-66
2023/03/05 03:41:33;;;;;;;5.05;3.00;;;;;;;14.16;36.46;99947.31;5072032;28;20044;-67
2023/03/05 03:44:03;;;;;;;5.45;3.15;;;;;;;14.13;36.20;99940.38;5071957;28;20049;-66
2023/03/05 03:46:32;;;;;;;5.32;3.08;;;;;;;14.12;36.50;99940.50;5071685;28;20045;-67
2023/03/05 03:49:02;;;;;;;6.03;3.05;;;;;;;14.12;36.35;99944.03;5072302;28;20119;-66
2023/03/05 03:51:30;;;;;;;5.57;3.00;;;;;;;14.10;36.53;99940.66;5072021;28;20044;-65
2023/03/05 03:53:59;;;;;;;5.65;2.92;;;;;;;14.09;36.27;99944.31;5071808;28;20041;-67
2023/03/05 03:56:27;;;;;;;6.10;3.05;;;;;;;14.06;36.47;99941.00;5071741;28;20052;-67
2023/03/05 03:58:55;;;;;;;5.20;2.80;;;;;;;14.06;36.57;99949.88;5071764;28;20040;-68
2023/03/05 04:01:23;;;;;;;5.18;3.20;;;;;;;14.04;36.40;99941.13;5071674;28;20127;-67
2023/03/05 04:03:52;;;;;;;5.63;3.33;;;;;;;14.02;36.48;99951.97;5071978;28;20048;-67
2023/03/05 04:06:21;;;;;;;6.03;3.10;;;;;;;14.01;36.44;99950.25;5071687;28;20044;-66
2023/03/05 04:08:49;;;;;;;5.22;3.00;;;;;;;13.99;36.37;99945.97;5071663;28;20044;-67
2023/03/05 04:11:18;;;;;;;5.65;2.90;;;;;;;13.99;36.67;99943.28;5071688;28;20094;-65
2023/03/05 04:13:47;;;;;;;5.35;2.90;;;;;;;13.98;36.62;99938.91;5071540;28;20052;-65
2023/03/05 04:16:15;;;;;;;4.50;2.65;;;;;;;13.95;36.44;99939.16;5075411;28;20053;-67
2023/03/05 04:18:43;;;;;;;5.20;3.00;;;;;;;13.95;36.59;99941.84;5075687;28;20049;-67
2023/03/05 04:21:12;;;;;;;4.75;2.85;;;;;;;13.94;36.71;99946.34;5075646;28;20115;-66
2023/03/05 04:23:41;;;;;;;4.47;2.70;;;;;;;13.91;36.37;99946.59;5075590;28;20056;-67
2023/03/05 04:26:09;;;;;;;6.05;2.58;;;;;;;13.90;36.63;99939.53;5075449;28;20144;-66
2023/03/05 04:28:38;;;;;;;4.50;2.80;;;;;;;13.91;36.68;99940.41;5075529;28;20094;-66
2023/03/05 04:31:06;;;;;;;5.00;2.80;;;;;;;13.89;36.50;99940.47;5075698;28;20048;-66
2023/03/05 04:33:34;;;;;;;4.55;3.00;;;;;;;13.89;36.54;99945.00;5075551;28;20044;-67
2023/03/05 04:36:02;;;;;;;5.15;2.60;;;;;;;13.86;36.86;99932.69;5075300;28;20047;-66
2023/03/05 04:38:30;;;;;;;5.13;3.10;;;;;;;13.87;36.63;99936.22;5075033;28;20063;-66
2023/03/05 04:41:00;;;;;;;6.05;3.20;;;;;;;13.88;36.72;99941.47;5075127;28;20098;-67
2023/03/05 04:43:28;;;;;;;5.70;3.00;;;;;;;13.94;36.69;99940.13;5075368;28;20514;-67
2023/03/05 04:45:56;;;;;;;4.57;2.53;;;;;;;13.95;36.92;99941.84;5075020;28;20493;-66
2023/03/05 04:48:24;;;;;;;4.43;2.50;;;;;;;14.08;36.99;99939.88;5073853;28;20090;-67
2023/03/05 04:50:52;;;;;;;4.70;2.60;;;;;;;14.17;37.00;99932.94;5075011;28;20045;-67
2023/03/05 04:53:20;;;;;;;4.72;2.72;;;;;;;14.25;36.92;99939.41;5074870;28;20558;-67
2023/03/05 04:55:53;;;;;;;5.35;3.00;;;;;;;14.35;36.82;99936.81;5074887;28;20044;-67
2023/03/05 04:58:23;;;;;;;4.77;2.70;;;;;;;14.44;36.64;99929.88;5075057;28;20397;-66
2023/03/05 05:00:51;;;;;;;4.53;2.70;;;;;;;14.55;36.63;99937.91;5074744;28;20433;-66
2023/03/05 05:03:19;;;;;;;4.25;2.45;;;;;;;14.65;36.70;99930.81;5073742;28;20044;-66
2023/03/05 05:05:55;;;;;;;4.65;2.53;;;;;;;14.76;36.42;99928.09;5074726;28;20054;-66
2023/03/05 05:08:23;;;;;;;4.30;2.67;;;;;;;14.89;36.50;99934.19;5074686;28;20049;-67
2023/03/05 05:10:59;;;;;;;4.35;2.58;;;;;;;15.03;36.46;99934.84;5074643;28;20047;-67
2023/03/05 05:13:31;;;;;;;5.28;2.72;;;;;;;15.12;36.28;99934.06;5074725;28;20123;-65
2023/03/05 05:16:00;;;;;;;5.10;2.60;;;;;;;15.21;36.31;99933.31;5074657;28;20048;-66
2023/03/05 05:18:28;;;;;;;4.05;2.42;;;;;;;15.32;36.18;99938.63;5074486;28;20071;-66
2023/03/05 05:20:57;;;;;;;5.70;2.65;;;;;;;15.44;36.17;99934.91;5074507;28;20054;-67
2023/03/05 05:23:25;;;;;;;3.90;2.33;;;;;;;15.57;36.09;99940.09;5074417;28;20043;-67
2023/03/05 05:25:57;;;;;;;4.80;2.47;;;;;;;15.68;35.88;99936.50;5073265;28;20072;-65
2023/03/05 05:28:26;;;;;;;4.53;2.60;;;;;;;15.79;35.86;99944.47;5074466;28;20448;-65
2023/03/05 05:30:56;;;;;;;4.50;2.58;;;;;;;15.91;35.79;99943.41;5074213;28;20040;-67
2023/03/05 05:33:25;;;;;;;4.88;2.58;;;;;;;15.99;35.70;99940.91;5074367;28;20149;-65
2023/03/05 05:35:53;;;;;;;4.93;2.38;;;;;;;16.05;35.71;99936.84;5074151;28;20045;-65
2023/03/05 05:38:21;;;;;;;4.95;2.45;;;;;;;16.11;35.58;99938.13;5074197;28;20040;-65
2023/03/05 05:40:49;;;;;;;4.13;2.70;;;;;;;16.14;35.51;99949.47;5074110;28;20040;-65
2023/03/05 05:43:17;;;;;;;4.68;2.60;;;;;;;16.19;35.65;99951.75;5074101;28;20040;-65
2023/03/05 05:45:46;;;;;;;4.72;2.50;;;;;;;16.22;35.61;99949.66;5073900;28;20044;-66
2023/03/05 05:48:15;;;;;;;3.90;2.50;;;;;;;16.19;35.56;99943.69;5073976;28;20481;-64
2023/03/05 05:50:43;;;;;;;4.47;2.60;;;;;;;16.29;35.56;99974.16;5073910;28;20541;-66
2023/03/05 05:53:12;;;;;;;4.22;2.45;;;;;;;16.29;35.57;99968.78;5073911;28;20040;-64
2023/03/05 05:55:40;;;;;;;4.57;2.50;;;;;;;16.33;35.46;99969.38;5073888;28;20048;-65
2023/03/05 05:58:08;;;;;;;4.60;2.58;;;;;;;16.37;35.59;99971.66;5073851;28;20044;-65
2023/03/05 06:00:36;;;;;;;5.10;2.35;;;;;;;16.42;35.54;99971.28;5073807;28;20055;-66
2023/03/05 06:03:04;;;;;;;4.88;2.90;;;;;;;16.48;35.42;99974.25;5073893;28;20502;-66
2023/03/05 06:05:34;;;;;;;4.25;2.47;;;;;;;16.53;35.23;99974.69;5073684;28;20106;-66
2023/03/05 06:08:02;;;;;;;4.10;2.50;;;;;;;16.59;35.17;99974.13;5073630;28;20048;-64
2023/03/05 06:10:30;;;;;;;5.75;3.00;;;;;;;16.60;35.15;99977.72;5073588;28;20131;-65
2023/03/05 06:12:58;;;;;;;4.78;2.60;;;;;;;16.62;35.16;99977.56;5073527;28;20444;-66
2023/03/05 06:15:27;;;;;;;3.97;2.35;;;;;;;16.59;35.24;99976.81;5073505;28;20048;-65
2023/03/05 06:17:55;;;;;;;5.82;2.80;;;;;;;16.59;35.23;99971.44;5073489;28;20394;-66
2023/03/05 06:20:23;;;;;;;4.90;2.90;;;;;;;16.57;35.26;99972.56;5073486;28;20048;-65
2023/03/05 06:22:52;;;;;;;5.00;2.63;;;;;;;16.52;35.36;99975.69;5073474;28;20048;-66
2023/03/05 06:25:20;;;;;;;4.57;2.70;;;;;;;16.49;35.47;99969.72;5073340;28;20070;-65
2023/03/05 06:27:49;;;;;;;4.78;2.72;;;;;;;16.47;35.48;99986.00;5073421;28;20051;-66
2023/03/05 06:30:17;;;;;;;4.95;2.60;;;;;;;16.44;35.39;99980.06;5073299;28;20079;-65
2023/03/05 06:32:45;;;;;;;4.70;2.67;;;;;;;16.41;35.44;99983.88;5073254;28;20051;-65
2023/03/05 06:35:13;;;;;;;4.50;2.40;;;;;;;16.37;35.45;99977.03;5073107;28;20427;-64
2023/03/05 06:37:41;;;;;;;4.45;2.50;;;;;;;16.33;35.55;99977.47;5072824;28;20442;-65
2023/03/05 06:40:12;;;;;;;5.40;2.67;;;;;;;16.29;35.69;99980.41;5072818;28;20058;-65
2023/03/05 06:42:41;;;;;;;5.55;2.85;;;;;;;16.27;35.80;99978.84;5072990;28;20603;-66
2023/03/05 06:45:10;;;;;;;4.88;3.00;;;;;;;16.21;35.97;99979.38;5073133;28;20040;-66
2023/03/05 06:47:38;;;;;;;4.38;2.63;;;;;;;16.16;35.88;99978.94;5073194;28;20517;-66
2023/03/05 06:50:07;;;;;;;5.03;2.80;;;;;;;16.14;35.88;99975.53;5073063;28;20049;-66
2023/03/05 06:52:37;;;;;;;6.22;2.85;;;;;;;16.09;35.85;99978.63;5071583;28;20102;-65
2023/03/05 06:55:06;;;;;;;4.72;2.88;;;;;;;16.06;35.88;99983.44;5072835;28;20102;-65
2023/03/05 06:57:36;;;;;;;4.90;2.90;;;;;;;16.00;35.95;99980.28;5072854;28;20051;-65
2023/03/05 07:00:08;;;;;;;5.25;2.70;;;;;;;15.98;35.82;99976.00;5072742;28;20044;-65
2023/03/05 07:02:37;;;;;;;5.33;3.20;;;;;;;15.95;35.79;99984.34;5072712;28;20463;-66
2023/03/05 07:05:06;;;;;;;4.60;2.55;;;;;;;15.90;35.82;99973.97;5072564;28;20051;-66
2023/03/05 07:07:35;;;;;;;5.20;2.67;;;;;;;15.89;35.86;99983.03;5072498;28;20048;-67
2023/03/05 07:10:06;;;;;;;4.55;2.80;;;;;;;15.85;35.77;99970.84;5072587;28;20045;-67
2023/03/05 07:12:37;;;;;;;5.47;3.30;;;;;;;15.83;35.84;99983.59;5072438;28;20072;-66
2023/03/05 07:15:06;;;;;;;5.15;2.70;;;;;;;15.77;35.63;99976.03;5072426;28;20040;-66
2023/03/05 07:17:35;;;;;;;5.70;3.03;;;;;;;15.78;35.81;99976.88;5072338;28;20106;-66
2023/03/05 07:20:04;;;;;;;4.75;3.05;;;;;;;15.75;35.87;99975.31;5072196;28;20044;-66
2023/03/05 07:22:32;;;;;;;4.97;2.80;;;;;;;15.71;35.99;99981.94;5072312;28;20072;-66
2023/03/05 07:25:00;;;;;;;4.35;2.78;;;;;;;15.69;35.84;99970.47;5072414;28;20048;-66
2023/03/05 07:27:28;;;;;;;4.43;2.70;;;;;;;15.67;35.94;99972.44;5072154;28;20379;-65
2023/03/05 07:29:58;;;;;;;4.10;2.67;;;;;;;15.64;36.00;99972.72;5072114;28;20071;-66
2023/03/05 07:32:26;;;;;;;4.75;2.90;;;;;;;15.61;36.05;99972.94;5072124;28;20044;-65
2023/03/05 07:34:54;;;;;;;6.05;2.78;;;;;;;15.59;36.04;99974.88;5072449;28;20139;-66
2023/03/05 07:37:22;;;;;;;4.15;2.80;;;;;;;15.57;35.97;99968.81;5072068;28;20505;-66
2023/03/05 07:39:50;;;;;;;5.05;2.80;;;;;;;15.51;36.04;99967.47;5071873;28;20053;-66
2023/03/05 07:42:19;;;;;;;4.95;2.95;;;;;;;15.52;36.00;99985.31;5072008;28;20048;-65
2023/03/05 07:44:47;;;;;;;4.57;2.90;;;;;;;15.50;35.90;99975.66;5072180;28;20044;-65
2023/03/05 07:47:17;;;;;;;5.50;3.28;;;;;;;15.48;36.04;99972.28;5072247;28;20102;-66
2023/03/05 07:49:45;;;;;;;6.80;3.00;;;;;;;15.44;36.14;99977.91;5072564;28;20044;-67
2023/03/05 07:52:13;;;;;;;4.57;2.83;;;;;;;15.41;36.19;99970.09;5077005;28;20044;-67
2023/03/05 07:54:41;;;;;;;5.75;3.22;;;;;;;15.39;36.06;99976.59;5078745;28;20094;-67
2023/03/05 07:57:12;;;;;;;5.68;2.90;;;;;;;15.38;36.15;99966.81;5073450;28;20102;-65
2023/03/05 07:59:40;;;;;;;5.47;3.20;;;;;;;15.35;36.11;99970.63;5072691;28;20508;-65
2023/03/05 08:02:10;;;;;;;5.65;2.80;;;;;;;15.33;36.17;99969.03;5072428;28;20515;-66
2023/03/05 08:04:41;;;;;;;4.55;2.83;;;;;;;15.26;36.19;99954.44;5072351;28;20173;-65
2023/03/05 08:07:10;;;;;;;4.60;3.00;;;;;;;15.28;36.16;99969.44;5071936;28;20492;-66
2023/03/05 08:09:38;;;;;;;4.63;3.08;;;;;;;15.24;36.08;99959.91;5071787;28;20040;-65
2023/03/05 08:12:08;;;;;;;5.65;3.00;;;;;;;15.24;36.17;99959.06;5071694;28;20079;-67
2023/03/05 08:14:36;;;;;;;4.55;2.85;;;;;;;15.21;36.23;99960.19;5071649;28;20040;-66
2023/03/05 08:17:05;;;;;;;5.38;3.05;;;;;;;15.20;36.30;99963.00;5071631;28;20051;-66
2023/03/05 08:19:34;;;;;;;4.93;3.00;;;;;;;15.16;36.37;99957.88;5069758;28;20504;-66
2023/03/05 08:22:04;;;;;;;5.45;3.00;;;;;;;15.14;36.34;99958.97;5072236;28;20430;-66
2023/03/05 08:24:32;;;;;;;5.13;2.90;;;;;;;15.13;36.38;99959.97;5071250;28;20049;-67
2023/03/05 08:27:00;;;;;;;5.55;3.22;;;;;;;15.12;36.37;99960.94;5071247;28;20113;-68
2023/03/05 08:29:29;;;;;;;4.75;3.03;;;;;;;15.10;36.26;99962.91;5070820;28;20482;-67
2023/03/05 08:32:03;;;;;;;5.35;3.22;;;;;;;15.09;36.37;99969.28;5071214;28;20051;-68
2023/03/05 08:34:31;;;;;;;5.10;3.03;;;;;;;15.08;36.24;99959.50;5070968;28;20053;-67
2023/03/05 08:36:59;;;;;;;5.50;3.00;;;;;;;15.07;36.27;99968.56;5070975;28;20452;-65
2023/03/05 08:39:30;;;;;;;5.10;3.20;;;;;;;15.05;36.38;99973.16;5070518;28;20519;-66
2023/03/05 08:41:58;;;;;;;6.20;3.15;;;;;;;15.02;36.39;99971.59;5071158;28;20072;-68
2023/03/05 08:44:26;;;;;;;5.30;3.33;;;;;;;15.02;36.46;99960.00;5070938;28;20376;-67
2023/03/05 08:46:54;;;;;;;6.05;3.03;;;;;;;15.01;36.34;99959.16;5070924;28;20076;-66
2023/03/05 08:49:23;;;;;;;5.68;2.92;;;;;;;15.00;36.33;99964.66;5070565;28;20049;-65
2023/03/05 08:51:51;;;;;;;5.95;3.30;;;;;;;14.98;36.32;99969.31;5070772;28;20565;-66
2023/03/05 08:54:19;;;;;;;5.18;2.97;;;;;;;14.97;36.52;99963.09;5070947;28;20114;-64
2023/03/05 08:56:49;;;;;;;6.47;3.22;;;;;;;14.96;36.48;99960.50;5070906;28;20048;-64
2023/03/05 08:59:17;;;;;;;4.85;3.10;;;;;;;14.96;36.57;99966.75;5070565;28;20048;-64
2023/03/05 09:01:46;;;;;;;5.45;3.10;;;;;;;14.96;36.48;99960.50;5073509;28;20044;-64
2023/03/05 09:04:15;;;;;;;6.03;3.13;;;;;;;14.92;36.66;99954.53;5074309;28;20067;-64
2023/03/05 09:06:43;;;;;;;6.32;2.75;;;;;;;14.91;36.69;99954.69;5074361;28;20075;-64
2023/03/05 09:09:12;;;;;;;5.05;2.92;;;;;;;14.92;36.61;99956.38;5073849;28;20127;-64
2023/03/05 09:11:40;;;;;;;4.72;2.85;;;;;;;14.89;36.52;99952.13;5074371;28;20052;-66
2023/03/05 09:14:10;;;;;;;5.40;3.08;;;;;;;14.89;36.55;99944.91;5074218;28;20041;-65
2023/03/05 09:16:39;;;;;;;5.55;2.88;;;;;;;14.88;36.60;99947.75;5074035;28;20072;-65
2023/03/05 09:19:09;;;;;;;4.70;3.00;;;;;;;14.89;36.70;99952.97;5073662;28;20048;-65
2023/03/05 09:21:38;;;;;;;4.22;2.65;;;;;;;14.88;36.65;99953.97;5074067;28;20044;-65
2023/03/05 09:24:06;;;;;;;5.85;3.10;;;;;;;14.87;36.68;99946.88;5074055;28;20044;-65
2023/03/05 09:26:35;;;;;;;4.72;2.70;;;;;;;14.87;36.78;99952.25;5072565;28;20059;-65
2023/03/05 09:29:06;;;;;;;4.00;2.78;;;;;;;14.86;36.70;99944.31;5073473;28;20072;-65
2023/03/05 09:31:35;;;;;;;5.20;3.08;;;;;;;14.86;36.88;99949.66;5073942;28;20068;-64
2023/03/05 09:34:04;;;;;;;4.85;2.90;;;;;;;14.87;36.74;99946.03;5074132;28;20044;-64
2023/03/05 09:36:33;;;;;;;5.95;3.10;;;;;;;14.87;36.87;99946.03;5074068;28;20547;-65
2023/03/05 09:39:01;;;;;;;5.10;2.90;;;;;;;14.86;36.82;99947.88;5073339;28;20482;-64
2023/03/05 09:41:37;;;;;;;4.78;3.08;;;;;;;14.86;37.00;99944.31;5073988;28;20105;-64
2023/03/05 09:44:18;;;;;;;4.00;2.67;;;;;;;14.85;36.96;99943.44;5073578;28;20048;-64
2023/03/05 09:46:53;;;;;;;5.18;2.88;;;;;;;14.85;36.95;99938.06;5073611;28;20083;-64
2023/03/05 09:49:32;;;;;;;4.95;2.70;;;;;;;14.80;36.99;99929.56;5072884;28;20504;-64
2023/03/05 09:52:07;;;;;;;5.15;2.90;;;;;;;14.83;36.96;99931.13;5073331;28;20056;-64
2023/03/05 09:54:39;;;;;;;6.53;3.40;;;;;;;14.82;36.94;99927.59;5073122;28;20074;-65
2023/03/05 09:57:16;;;;;;;5.13;2.92;;;;;;;14.86;36.86;99928.19;5073424;28;20127;-65
2023/03/05 09:59:49;;;;;;;4.60;2.90;;;;;;;14.83;36.84;99923.94;5072942;28;20048;-65
2023/03/05 10:02:25;;;;;;;5.80;3.10;;;;;;;14.85;36.95;99924.66;5073302;28;20052;-65
2023/03/05 10:04:58;;;;;;;4.97;3.20;;;;;;;14.85;36.99;99921.97;5073246;28;20501;-65
2023/03/05 10:07:30;;;;;;;5.38;3.10;;;;;;;14.86;36.89;99926.38;5072734;28;20044;-64
2023/03/05 10:10:00;;;;;;;4.20;2.78;;;;;;;14.84;37.12;99925.63;5072846;28;20128;-65
2023/03/05 10:12:41;;;;;;;4.07;2.63;;;;;;;14.85;37.08;99919.28;5072262;28;20128;-64
2023/03/05 10:15:12;;;;;;;4.60;2.78;;;;;;;14.84;37.24;99909.53;5073147;28;20041;-63
2023/03/05 10:17:58;;;;;;;4.35;2.55;;;;;;;14.83;37.02;99910.50;5072908;28;20059;-64
2023/03/05 10:20:49;;;;;;;4.35;2.50;;;;;;;14.86;37.08;99915.66;5072977;28;20055;-63
2023/03/05 10:23:29;;;;;;;4.90;2.70;;;;;;;14.84;37.24;99904.16;5071311;28;20087;-63
2023/03/05 10:26:27;;;;;;;4.85;2.88;;;;;;;14.86;37.23;99902.22;5072692;28;20044;-63
2023/03/05 10:29:08;;;;;;;4.80;2.60;;;;;;;14.86;37.05;99895.97;5072301;28;20479;-64
2023/03/05 10:31:54;;;;;;;4.55;2.65;;;;;;;14.86;37.27;99904.91;5072678;28;20127;-65
2023/03/05 10:34:40;;;;;;;4.50;2.88;;;;;;;14.85;37.13;99894.28;5072560;28;20076;-64
2023/03/05 10:37:34;;;;;;;4.50;2.55;;;;;;;14.88;37.34;99900.25;5072686;28;20379;-64
2023/03/05 10:40:15;;;;;;;4.88;2.70;;;;;;;14.88;37.52;99889.50;5071958;28;20114;-66
2023/03/05 10:42:53;;;;;;;4.43;2.70;;;;;;;14.88;37.67;99897.56;5072353;28;20045;-65
2023/03/05 10:45:24;;;;;;;3.97;2.38;;;;;;;14.89;37.53;99891.22;5072395;28;20076;-65
2023/03/05 10:47:55;;;;;;;4.30;2.42;;;;;;;14.89;37.49;99891.22;5072207;28;20041;-66
2023/03/05 10:50:26;;;;;;;4.75;2.53;;;;;;;14.89;37.45;99885.00;5072188;28;20069;-65
2023/03/05 10:53:07;;;;;;;4.18;2.50;;;;;;;14.89;37.55;99887.69;5072165;28;20051;-65
2023/03/05 10:55:36;;;;;;;4.25;2.40;;;;;;;14.90;37.62;99889.38;5072147;28;20052;-65
2023/03/05 10:58:11;;;;;;;4.60;2.65;;;;;;;14.92;37.43;99886.56;5071931;28;20485;-65
2023/03/05 11:00:40;;;;;;;5.82;2.85;;;;;;;14.90;37.39;99884.00;5072167;28;20160;-65
2023/03/05 11:03:09;;;;;;;4.00;2.60;;;;;;;14.89;37.53;99885.84;5072344;28;20055;-67
2023/03/05 11:05:45;;;;;;;4.75;2.65;;;;;;;14.85;37.50;99873.63;5071914;28;20040;-65
2023/03/05 11:08:29;;;;;;;4.63;2.58;;;;;;;14.88;37.48;99881.47;5071812;28;20421;-65
2023/03/05 11:11:13;;;;;;;4.65;2.47;;;;;;;14.88;37.53;99872.56;5072042;28;20056;-64
2023/03/05 11:13:52;;;;;;;4.38;2.45;;;;;;;14.87;37.62;99874.38;5071786;28;20067;-65
2023/03/05 11:16:22;;;;;;;5.00;2.90;;;;;;;14.85;37.50;99854.84;5072011;28;20056;-65
2023/03/05 11:18:53;;;;;;;4.45;2.83;;;;;;;14.85;37.42;99845.94;5071583;28;20123;-64
2023/03/05 11:21:27;;;;;;;5.00;2.80;;;;;;;14.88;37.49;99848.38;5072062;28;20110;-65
2023/03/05 11:24:06;;;;;;;4.15;2.33;;;;;;;14.94;39.35;99852.38;5071928;28;20075;-64
2023/03/05 11:26:34;;;;;;;5.35;2.13;;;;;;;14.99;40.18;99850.16;5071498;28;20566;-64
2023/03/05 11:29:09;;;;;;;5.60;2.83;;;;;;;15.01;39.38;99858.94;5071459;28;20048;-64
2023/03/05 11:31:39;;;;;;;6.80;3.20;;;;;;;15.04;39.40;99847.91;5071755;28;20052;-65
2023/03/05 11:34:23;;;;;;;4.88;2.50;;;;;;;15.05;39.62;99846.94;5071613;28;20059;-66
2023/03/05 11:37:05;;;;;;;5.18;2.85;;;;;;;15.06;39.66;99848.66;5071405;28;20044;-64
2023/03/05 11:44:47;;;;;;;4.10;2.50;;;;;;;15.11;40.10;99833.00;5071479;28;20044;-65
2023/03/05 11:47:27;;;;;;;4.10;2.60;;;;;;;15.11;40.03;99836.53;5071431;28;20319;-65
2023/03/05 11:50:02;;;;;;;5.43;2.63;;;;;;;15.13;40.04;99833.69;5071204;28;20049;-65
2023/03/05 11:52:42;;;;;;;4.35;2.78;;;;;;;15.14;39.71;99824.66;5071258;28;20048;-65
2023/03/05 11:55:17;;;;;;;6.25;2.67;;;;;;;15.16;40.20;99817.34;5071359;28;20123;-65